createdAt,value
2018-08-13T00:00:52.754Z,55.18
2018-08-13T00:03:25.758Z,56.80
2018-08-13T00:05:57.261Z,57.44
2018-08-13T00:08:29.317Z,57.07
2018-08-13T00:11:01.121Z,55.78
2018-08-13T00:13:34.550Z,57.67
2018-08-13T00:16:06.276Z,55.72
2018-08-13T00:18:37.953Z,57.42
2018-08-13T00:21:09.745Z,58.14
2018-08-13T00:23:41.710Z,57.34
2018-08-13T00:26:13.573Z,57.10
2018-08-13T00:28:45.389Z,56.10
2018-08-13T00:31:17.145Z,55.75
2018-08-13T00:33:48.892Z,56.47
2018-08-13T00:36:20.849Z,57.01
2018-08-13T00:38:52.926Z,57.91
2018-08-13T00:41:24.789Z,56.83
2018-08-13T00:43:56.605Z,56.78
2018-08-13T00:46:28.598Z,57.36
2018-08-13T00:49:01.033Z,58.22
2018-08-13T00:51:33.164Z,57.06
2018-08-13T00:54:05.310Z,56.70
2018-08-13T00:56:37.452Z,58.41
2018-08-13T00:59:09.388Z,57.64
2018-08-13T01:01:41.270Z,56.45
2018-08-13T01:04:13.167Z,58.84
2018-08-13T01:06:44.860Z,58.38
2018-08-13T01:09:16.835Z,57.58
2018-08-13T01:11:48.800Z,58.20
2018-08-13T01:14:21.653Z,59.28
2018-08-13T01:16:53.351Z,59.07
2018-08-13T01:19:25.316Z,58.33
2018-08-13T01:21:57.308Z,58.95
2018-08-13T01:24:29.553Z,57.55
2018-08-13T01:27:01.586Z,57.03
2018-08-13T01:29:33.575Z,58.60
2018-08-13T01:32:05.390Z,59.66
2018-08-13T01:34:37.552Z,59.03
2018-08-13T01:37:09.541Z,59.61
2018-08-13T01:39:41.715Z,60.16
2018-08-13T01:42:13.734Z,59.81
2018-08-13T01:44:45.581Z,60.87
2018-08-13T01:47:17.658Z,60.99
2018-08-13T01:49:49.721Z,60.08
2018-08-13T01:52:21.334Z,60.60
2018-08-13T01:54:53.320Z,60.36
2018-08-13T01:57:25.201Z,59.24
2018-08-13T01:59:57.219Z,60.07
2018-08-13T02:02:28.955Z,59.87
2018-08-13T02:05:01.261Z,60.80
2018-08-13T02:07:33.196Z,59.87
2018-08-13T02:10:05.568Z,55.46
2018-08-13T02:12:37.296Z,57.66
2018-08-13T02:15:10.481Z,59.10
2018-08-13T02:17:42.701Z,59.83
2018-08-13T02:20:15.041Z,60.82
2018-08-13T02:22:47.336Z,60.73
2018-08-13T02:25:19.468Z,60.88
2018-08-13T02:27:51.402Z,61.03
2018-08-13T02:30:23.385Z,60.73
2018-08-13T02:32:55.200Z,60.97
2018-08-13T02:35:26.985Z,60.37
2018-08-13T02:37:58.683Z,59.87
2018-08-13T02:40:30.746Z,59.51
2018-08-13T02:43:03.056Z,60.10
2018-08-13T02:45:34.955Z,59.82
2018-08-13T02:48:07.397Z,59.81
2018-08-13T02:50:39.404Z,60.19
2018-08-13T02:53:11.199Z,60.29
2018-08-13T02:55:44.250Z,61.35
2018-08-13T02:58:16.112Z,60.54
2018-08-13T03:00:49.076Z,60.40
2018-08-13T03:03:20.893Z,60.60
2018-08-13T03:05:52.626Z,61.42
2018-08-13T03:08:24.684Z,61.13
2018-08-13T03:10:56.676Z,61.46
2018-08-13T03:13:28.942Z,60.31
2018-08-13T03:16:01.963Z,61.12
2018-08-13T03:18:33.944Z,62.02
2018-08-13T03:21:06.517Z,62.10
2018-08-13T03:23:38.711Z,62.30
2018-08-13T03:26:11.130Z,60.49
2018-08-13T03:28:43.271Z,60.64
2018-08-13T03:31:15.025Z,60.95
2018-08-13T03:33:46.910Z,60.95
2018-08-13T03:36:18.769Z,61.12
2018-08-13T03:38:50.899Z,62.08
2018-08-13T03:41:23.118Z,60.53
2018-08-13T03:43:55.233Z,60.70
2018-08-13T03:46:27.493Z,61.06
2018-08-13T03:48:59.079Z,47.96
2018-08-13T03:51:31.095Z,47.36
2018-08-13T03:54:02.981Z,53.26
2018-08-13T03:56:35.239Z,59.97
2018-08-13T03:59:06.916Z,60.96
2018-08-13T04:01:38.862Z,61.76
2018-08-13T04:04:11.005Z,61.70
2018-08-13T04:06:42.941Z,61.23
2018-08-13T04:09:14.940Z,61.26
2018-08-13T04:11:46.652Z,61.66
2018-08-13T04:14:18.485Z,62.56
2018-08-13T04:17:00.430Z,60.65
2018-08-13T04:19:34.380Z,61.35
2018-08-13T04:22:06.403Z,62.36
2018-08-13T04:24:38.056Z,57.72
2018-08-13T04:27:09.888Z,61.17
2018-08-13T04:29:41.589Z,61.29
2018-08-13T04:32:13.449Z,62.36
2018-08-13T04:34:45.387Z,58.04
2018-08-13T04:37:17.113Z,60.73
2018-08-13T04:39:48.905Z,61.64
2018-08-13T04:42:20.879Z,56.51
2018-08-13T04:44:52.217Z,55.26
2018-08-13T04:47:23.992Z,55.68
2018-08-13T04:49:55.676Z,59.50
2018-08-13T04:52:27.499Z,61.95
2018-08-13T04:54:59.181Z,62.91
2018-08-13T04:57:30.930Z,60.90
2018-08-13T05:00:02.665Z,58.09
2018-08-13T05:02:34.401Z,61.88
2018-08-13T05:05:07.062Z,61.85
2018-08-13T05:07:39.412Z,62.78
2018-08-13T05:10:12.153Z,61.90
2018-08-13T05:12:44.194Z,60.83
2018-08-13T05:15:15.967Z,61.34
2018-08-13T05:17:47.978Z,61.35
2018-08-13T05:20:20.195Z,61.13
2018-08-13T05:22:52.001Z,61.15
2018-08-13T05:25:23.765Z,61.69
2018-08-13T05:27:55.826Z,59.90
2018-08-13T05:30:27.759Z,60.19
2018-08-13T05:32:59.755Z,59.17
2018-08-13T05:35:31.676Z,59.53
2018-08-13T05:38:03.834Z,59.65
2018-08-13T05:40:35.648Z,59.20
2018-08-13T05:43:07.776Z,58.84
2018-08-13T05:45:39.671Z,59.52
2018-08-13T05:48:11.542Z,58.68
2018-08-13T05:50:43.710Z,59.69
2018-08-13T05:53:15.903Z,58.56
2018-08-13T05:55:48.110Z,58.91
2018-08-13T05:58:19.959Z,59.15
2018-08-13T06:00:51.531Z,59.93
2018-08-13T06:03:23.785Z,59.21
2018-08-13T06:05:55.842Z,60.34
2018-08-13T06:08:27.922Z,60.34
2018-08-13T06:10:59.772Z,57.37
2018-08-13T06:13:31.596Z,56.70
2018-08-13T06:16:03.391Z,57.94
2018-08-13T06:18:35.243Z,57.67
2018-08-13T06:21:07.174Z,58.21
2018-08-13T06:23:39.349Z,58.45
2018-08-13T06:26:11.220Z,58.51
2018-08-13T06:28:43.622Z,58.93
2018-08-13T06:31:15.841Z,60.28
2018-08-13T06:33:49.424Z,59.19
2018-08-13T06:36:21.438Z,59.04
2018-08-13T06:38:53.566Z,58.89
2018-08-13T06:41:25.607Z,57.62
2018-08-13T06:43:57.693Z,57.72
2018-08-13T06:46:30.287Z,59.08
2018-08-13T06:49:03.664Z,59.15
2018-08-13T06:51:36.101Z,59.48
2018-08-13T06:54:08.465Z,59.97
2018-08-13T06:56:40.865Z,59.97
2018-08-13T06:59:13.641Z,59.81
2018-08-13T07:01:46.807Z,60.50
2018-08-13T07:04:19.717Z,59.85
2018-08-13T07:06:52.874Z,59.85
2018-08-13T07:09:25.134Z,59.79
2018-08-13T07:11:57.567Z,59.55
2018-08-13T07:14:30.079Z,58.60
2018-08-13T07:17:01.929Z,60.07
2018-08-13T07:19:34.304Z,59.71
2018-08-13T07:22:06.427Z,58.93
2018-08-13T07:24:39.000Z,58.94
2018-08-13T07:27:11.328Z,59.60
2018-08-13T07:29:44.122Z,59.04
2018-08-13T07:32:16.715Z,59.00
2018-08-13T07:34:48.830Z,58.80
2018-08-13T07:37:21.198Z,58.82
2018-08-13T07:39:53.358Z,58.47
2018-08-13T07:42:25.656Z,58.60
2018-08-13T07:44:57.894Z,57.88
2018-08-13T07:47:30.447Z,57.24
2018-08-13T07:50:03.241Z,58.32
2018-08-13T07:52:35.191Z,58.57
2018-08-13T07:55:08.755Z,57.57
2018-08-13T07:57:41.061Z,56.73
2018-08-13T08:00:15.164Z,57.59
2018-08-13T08:02:47.343Z,57.29
2018-08-13T08:05:19.548Z,56.80
2018-08-13T08:07:52.196Z,58.41
2018-08-13T08:10:25.665Z,57.49
2018-08-13T08:12:57.817Z,57.47
2018-08-13T08:15:30.185Z,57.77
2018-08-13T08:18:03.329Z,57.54
2018-08-13T08:20:35.790Z,57.77
2018-08-13T08:23:09.127Z,56.49
2018-08-13T08:25:41.442Z,57.00
2018-08-13T08:28:13.342Z,56.54
2018-08-13T08:30:45.205Z,57.16
2018-08-13T08:33:16.901Z,56.64
2018-08-13T08:35:48.746Z,56.02
2018-08-13T08:38:20.333Z,56.99
2018-08-13T08:40:52.434Z,56.86
2018-08-13T08:43:24.491Z,56.07
2018-08-13T08:45:56.704Z,57.09
2018-08-13T08:48:28.519Z,55.60
2018-08-13T08:51:00.968Z,56.34
2018-08-13T08:53:32.749Z,55.13
2018-08-13T08:56:04.676Z,55.63
2018-08-13T08:58:36.695Z,56.30
2018-08-13T09:01:08.685Z,55.17
2018-08-13T09:03:40.488Z,55.64
2018-08-13T09:06:12.296Z,54.77
2018-08-13T09:08:44.241Z,54.85
2018-08-13T09:11:15.813Z,54.64
2018-08-13T09:13:47.701Z,53.89
2018-08-13T09:16:19.700Z,55.34
2018-08-13T09:19:00.759Z,54.55
2018-08-13T09:21:37.091Z,54.56
2018-08-13T09:24:18.299Z,54.24
2018-08-13T09:26:59.570Z,53.80
2018-08-13T09:29:40.686Z,54.57
2018-08-13T09:32:27.308Z,54.68
2018-08-13T09:35:31.805Z,53.74
2018-08-13T09:38:04.343Z,56.21
2018-08-13T09:40:36.289Z,56.80
2018-08-13T09:43:08.286Z,57.58
2018-08-13T09:45:40.101Z,58.29
2018-08-13T09:48:12.501Z,59.14
2018-08-13T09:50:44.204Z,58.67
2018-08-13T09:53:17.555Z,59.68
2018-08-13T09:55:49.577Z,59.94
2018-08-13T09:58:21.779Z,59.91
2018-08-13T10:00:58.505Z,59.72
2018-08-13T10:03:31.682Z,59.07
2018-08-13T10:06:03.864Z,59.61
2018-08-13T10:08:35.712Z,59.71
2018-08-13T10:11:07.791Z,59.42
2018-08-13T10:13:39.674Z,57.74
2018-08-13T10:16:11.410Z,57.83
2018-08-13T10:18:43.748Z,57.57
2018-08-13T10:21:15.558Z,57.68
2018-08-13T10:23:47.486Z,57.91
2018-08-13T10:26:19.433Z,57.31
2018-08-13T10:28:51.381Z,51.12
2018-08-13T10:31:23.446Z,54.55
2018-08-13T10:33:55.295Z,55.64
2018-08-13T10:36:27.185Z,55.23
2018-08-13T10:39:01.909Z,55.00
2018-08-13T10:41:34.074Z,55.09
2018-08-13T10:44:07.693Z,54.58
2018-08-13T10:46:39.636Z,53.70
2018-08-13T10:49:11.621Z,53.81
2018-08-13T10:51:43.448Z,55.29
2018-08-13T10:54:15.681Z,54.56
2018-08-13T10:56:47.469Z,55.16
2018-08-13T10:59:19.430Z,53.22
2018-08-13T11:01:52.215Z,54.63
2018-08-13T11:04:24.440Z,55.16
2018-08-13T11:06:56.272Z,53.71
2018-08-13T11:09:30.045Z,58.80
2018-08-13T11:12:01.968Z,58.67
2018-08-13T11:14:33.793Z,57.48
2018-08-13T11:17:05.844Z,54.37
2018-08-13T11:19:38.032Z,57.18
2018-08-13T11:22:09.603Z,59.53
2018-08-13T11:24:41.402Z,59.53
2018-08-13T11:27:14.373Z,57.53
2018-08-13T11:29:49.361Z,56.16
2018-08-13T11:32:21.747Z,57.37
2018-08-13T11:34:53.376Z,59.92
2018-08-13T11:37:26.027Z,57.15
2018-08-13T11:39:57.946Z,60.38
2018-08-13T11:42:29.575Z,59.10
2018-08-13T11:45:01.604Z,58.50
2018-08-13T11:47:33.358Z,60.47
2018-08-13T11:50:05.751Z,59.76
2018-08-13T11:52:37.345Z,60.62
2018-08-13T11:55:09.212Z,58.97
2018-08-13T11:57:41.143Z,59.47
2018-08-13T12:00:13.633Z,58.99
2018-08-13T12:02:45.523Z,57.85
2018-08-13T12:05:17.724Z,57.45
2018-08-13T12:07:49.331Z,58.11
2018-08-13T12:10:21.430Z,56.53
2018-08-13T12:12:53.090Z,59.64
2018-08-13T12:15:24.964Z,59.47
2018-08-13T12:17:56.582Z,60.72
2018-08-13T12:20:28.709Z,60.55
2018-08-13T12:23:00.451Z,59.26
2018-08-13T12:25:32.847Z,57.81
2018-08-13T12:28:04.779Z,55.32
2018-08-13T12:30:36.904Z,56.73
2018-08-13T12:33:08.864Z,55.27
2018-08-13T12:35:41.486Z,58.16
2018-08-13T12:38:13.350Z,55.73
2018-08-13T12:40:45.528Z,56.44
2018-08-13T12:43:17.226Z,54.66
2018-08-13T12:45:49.362Z,54.66
2018-08-13T12:48:21.090Z,54.66
2018-08-13T12:50:53.609Z,55.50
2018-08-13T12:53:25.129Z,56.55
2018-08-13T12:55:57.008Z,57.12
2018-08-13T12:58:28.900Z,55.97
2018-08-13T13:01:07.026Z,54.11
2018-08-13T13:03:38.940Z,55.23
2018-08-13T13:06:10.970Z,57.94
2018-08-13T13:08:42.608Z,58.23
2018-08-13T13:11:14.742Z,55.25
2018-08-13T13:13:46.294Z,55.26
2018-08-13T13:16:18.446Z,54.34
2018-08-13T13:18:50.078Z,59.04
2018-08-13T13:21:21.990Z,55.15
2018-08-13T13:23:53.845Z,55.03
2018-08-13T13:26:25.616Z,52.96
2018-08-13T13:28:57.510Z,52.92
2018-08-13T13:31:29.501Z,54.45
2018-08-13T13:34:01.315Z,54.13
2018-08-13T13:36:33.377Z,49.68
2018-08-13T13:39:05.777Z,50.43
2018-08-13T13:41:37.752Z,55.62
2018-08-13T13:44:09.674Z,55.81
2018-08-13T13:46:42.270Z,58.00
2018-08-13T13:49:13.900Z,59.29
2018-08-13T13:51:45.960Z,59.48
2018-08-13T13:54:17.911Z,59.40
2018-08-13T13:56:49.930Z,59.18
2018-08-13T13:59:21.540Z,59.60
2018-08-13T14:01:53.424Z,60.44
2018-08-13T14:04:25.374Z,60.62
2018-08-13T14:06:57.456Z,61.66
2018-08-13T14:09:29.182Z,61.29
2018-08-13T14:12:01.087Z,62.24
2018-08-13T14:14:33.105Z,61.79
2018-08-13T14:17:04.972Z,62.24
2018-08-13T14:19:36.740Z,62.01
2018-08-13T14:22:08.551Z,62.04
2018-08-13T14:24:40.240Z,61.53
2018-08-13T14:27:12.102Z,62.20
2018-08-13T14:29:44.753Z,61.32
2018-08-13T14:32:16.446Z,61.43
2018-08-13T14:34:48.739Z,62.32
2018-08-13T14:37:20.560Z,61.40
2018-08-13T14:39:52.648Z,61.28
2018-08-13T14:42:24.520Z,62.09
2018-08-13T14:44:56.350Z,61.22
2018-08-13T14:47:28.569Z,61.46
2018-08-13T14:50:00.452Z,61.51
2018-08-13T14:52:32.340Z,61.93
2018-08-13T14:55:04.401Z,61.93
2018-08-13T14:57:36.299Z,62.35
2018-08-13T15:00:26.318Z,62.66
2018-08-13T15:02:58.111Z,61.61
2018-08-13T15:05:29.897Z,60.02
2018-08-13T15:08:01.562Z,60.18
2018-08-13T15:10:33.610Z,60.94
2018-08-13T15:13:05.824Z,59.14
2018-08-13T15:15:37.906Z,58.55
2018-08-13T15:18:09.934Z,57.83
2018-08-13T15:20:41.643Z,57.83
2018-08-13T15:23:13.527Z,56.92
2018-08-13T15:25:45.292Z,56.22
2018-08-13T15:28:17.654Z,55.99
2018-08-13T15:30:49.735Z,55.56
2018-08-13T15:33:21.613Z,56.47
2018-08-13T15:35:53.438Z,56.06
2018-08-13T15:38:25.043Z,55.14
2018-08-13T15:40:56.874Z,55.42
2018-08-13T15:43:28.959Z,55.11
2018-08-13T15:46:01.936Z,54.87
2018-08-13T15:48:33.905Z,53.10
2018-08-13T15:51:05.593Z,52.68
2018-08-13T15:53:37.414Z,51.88
2018-08-13T15:56:09.695Z,52.01
2018-08-13T15:58:41.974Z,51.93
2018-08-13T16:01:13.984Z,51.72
2018-08-13T16:03:46.021Z,51.21
2018-08-13T16:06:17.752Z,50.26
2018-08-13T16:08:49.813Z,49.78
2018-08-13T16:11:21.544Z,49.06
2018-08-13T16:13:53.642Z,51.13
2018-08-13T16:16:25.626Z,51.88
2018-08-13T16:18:57.415Z,49.99
2018-08-13T16:21:28.877Z,49.52
2018-08-13T16:24:00.706Z,48.66
2018-08-13T16:26:32.194Z,50.09
2018-08-13T16:29:04.084Z,48.82
2018-08-13T16:31:37.143Z,50.31
2018-08-13T16:34:09.351Z,49.08
2018-08-13T16:36:41.303Z,49.48
2018-08-13T16:39:13.867Z,48.82
2018-08-13T16:41:45.438Z,50.03
2018-08-13T16:44:17.501Z,49.05
2018-08-13T16:46:49.654Z,47.88
2018-08-13T16:49:21.635Z,48.75
2018-08-13T16:51:53.473Z,50.09
2018-08-13T16:54:25.548Z,50.68
2018-08-13T16:56:57.407Z,48.17
2018-08-13T16:59:29.539Z,48.93
2018-08-13T17:02:01.163Z,50.47
2018-08-13T17:04:33.012Z,50.86
2018-08-13T17:07:05.171Z,50.92
2018-08-13T17:09:37.060Z,50.64
2018-08-13T17:12:09.323Z,50.95
2018-08-13T17:14:41.562Z,50.93
2018-08-13T17:17:13.165Z,51.06
2018-08-13T17:19:44.993Z,51.57
2018-08-13T17:22:19.004Z,51.28
2018-08-13T17:24:51.889Z,49.79
2018-08-13T17:27:24.902Z,52.48
2018-08-13T17:29:57.366Z,52.45
2018-08-13T17:32:30.533Z,52.11
2018-08-13T17:35:03.365Z,51.69
2018-08-13T17:37:35.216Z,49.94
2018-08-13T17:40:07.541Z,51.41
2018-08-13T17:42:40.101Z,50.75
2018-08-13T17:45:12.117Z,50.07
2018-08-13T17:47:44.361Z,51.03
2018-08-13T17:50:17.640Z,51.68
2018-08-13T17:52:49.570Z,52.49
2018-08-13T17:55:21.764Z,48.12
2018-08-13T17:57:53.331Z,50.16
2018-08-13T18:00:26.994Z,50.83
2018-08-13T18:02:58.940Z,44.64
2018-08-13T18:05:30.856Z,45.46
2018-08-13T18:08:02.676Z,47.74
2018-08-13T18:10:35.461Z,48.45
2018-08-13T18:13:09.096Z,47.32
2018-08-13T18:15:42.515Z,47.98
2018-08-13T18:18:14.766Z,49.66
2018-08-13T18:20:47.033Z,49.69
2018-08-13T18:23:19.578Z,49.03
2018-08-13T18:25:52.517Z,49.02
2018-08-13T18:28:27.194Z,49.87
2018-08-13T18:31:00.615Z,52.03
2018-08-13T18:33:34.474Z,51.97
2018-08-13T18:36:07.166Z,50.99
2018-08-13T18:38:39.449Z,52.23
2018-08-13T18:41:14.643Z,52.38
2018-08-13T18:43:46.530Z,52.17
2018-08-13T18:46:18.530Z,53.11
2018-08-13T18:48:51.244Z,53.02
2018-08-13T18:51:23.640Z,52.12
2018-08-13T18:53:55.446Z,51.22
2018-08-13T18:56:27.970Z,50.85
2018-08-13T18:58:59.845Z,47.81
2018-08-13T19:01:32.448Z,48.79
2018-08-13T19:04:05.272Z,51.57
2018-08-13T19:06:38.512Z,48.64
2018-08-13T19:09:11.092Z,51.04
2018-08-13T19:11:43.423Z,50.90
2018-08-13T19:14:15.229Z,51.51
2018-08-13T19:16:47.966Z,52.74
2018-08-13T19:19:20.809Z,50.77
2018-08-13T19:21:53.159Z,51.90
2018-08-13T19:24:26.016Z,53.41
2018-08-13T19:26:59.174Z,51.84
2018-08-13T19:29:32.011Z,52.13
2018-08-13T19:32:03.925Z,51.36
2018-08-13T19:34:36.654Z,51.47
2018-08-13T19:37:09.004Z,51.64
2018-08-13T19:39:41.698Z,51.93
2018-08-13T19:42:14.071Z,52.51
2018-08-13T19:47:37.235Z,52.45
2018-08-13T19:50:11.675Z,52.29
2018-08-13T19:52:45.190Z,51.84
2018-08-13T19:55:17.626Z,51.42
2018-08-13T19:57:50.724Z,52.87
2018-08-13T20:00:26.695Z,49.91
2018-08-13T20:02:59.847Z,52.71
2018-08-13T20:05:32.303Z,52.83
2018-08-13T20:10:54.443Z,53.77
2018-08-13T20:13:27.490Z,52.17
2018-08-13T20:16:00.144Z,54.82
2018-08-13T20:18:33.135Z,54.91
2018-08-13T20:21:06.358Z,52.42
2018-08-13T20:23:38.697Z,52.71
2018-08-13T20:26:11.616Z,52.79
2018-08-13T20:28:43.803Z,52.60
2018-08-13T20:31:18.322Z,52.26
2018-08-13T20:33:51.030Z,53.13
2018-08-13T20:36:23.493Z,52.84
2018-08-13T20:38:56.085Z,52.27
2018-08-13T20:41:28.247Z,53.86
2018-08-13T20:44:00.920Z,53.16
2018-08-13T20:46:34.308Z,53.54
2018-08-13T20:49:06.700Z,52.73
2018-08-13T20:51:38.773Z,51.58
2018-08-13T20:54:11.147Z,52.13
2018-08-13T20:56:43.443Z,54.14
2018-08-13T20:59:15.879Z,53.66
2018-08-13T21:01:48.205Z,54.25
2018-08-13T21:04:20.407Z,52.96
2018-08-13T21:06:52.302Z,53.05
2018-08-13T21:09:24.993Z,52.47
2018-08-13T21:11:57.761Z,54.91
2018-08-13T21:14:30.119Z,55.42
2018-08-13T21:17:03.489Z,55.65
2018-08-13T21:19:36.191Z,53.91
2018-08-13T21:22:08.947Z,55.71
2018-08-13T21:24:42.300Z,56.09
2018-08-13T21:27:14.903Z,55.03
2018-08-13T21:29:46.838Z,53.80
2018-08-13T21:32:19.327Z,54.19
2018-08-13T21:34:52.151Z,56.37
2018-08-13T21:37:24.317Z,56.19
2018-08-13T21:39:56.556Z,55.37
2018-08-13T21:42:29.164Z,55.01
2018-08-13T21:45:01.704Z,55.25
2018-08-13T21:47:35.673Z,54.45
2018-08-13T21:50:10.675Z,55.62
2018-08-13T21:52:42.492Z,54.90
2018-08-13T21:55:14.357Z,55.40
2018-08-13T21:57:46.132Z,52.04
2018-08-13T22:00:25.410Z,54.99
2018-08-13T22:02:58.178Z,54.92
2018-08-13T22:05:30.220Z,54.34
2018-08-13T22:08:02.003Z,54.84
2018-08-13T22:10:33.926Z,54.48
2018-08-13T22:13:05.795Z,54.55
2018-08-13T22:15:37.811Z,56.41
2018-08-13T22:18:10.370Z,55.76
2018-08-13T22:20:42.399Z,56.64
2018-08-13T22:23:14.079Z,56.09
2018-08-13T22:25:48.189Z,57.25
2018-08-13T22:28:20.676Z,55.90
2018-08-13T22:30:52.791Z,56.48
2018-08-13T22:33:25.535Z,55.73
2018-08-13T22:35:57.797Z,55.67
2018-08-13T22:38:29.740Z,55.23
2018-08-13T22:41:01.789Z,56.12
2018-08-13T22:43:33.601Z,55.48
2018-08-13T22:46:05.579Z,55.91
2018-08-13T22:48:37.850Z,55.15
2018-08-13T22:51:09.711Z,54.65
2018-08-13T22:53:41.900Z,54.38
2018-08-13T22:56:14.277Z,55.69
2018-08-13T22:58:46.137Z,54.54
2018-08-13T23:01:17.839Z,55.36
2018-08-13T23:03:49.723Z,55.48
2018-08-13T23:06:21.838Z,55.40
2018-08-13T23:08:53.570Z,56.00
2018-08-13T23:11:25.641Z,55.62
2018-08-13T23:13:58.125Z,53.68
2018-08-13T23:16:30.102Z,54.90
2018-08-13T23:19:01.864Z,55.26
2018-08-13T23:21:33.526Z,54.24
2018-08-13T23:24:05.404Z,54.08
2018-08-13T23:26:37.370Z,54.62
2018-08-13T23:29:09.227Z,55.09
2018-08-13T23:31:41.587Z,55.46
2018-08-13T23:34:13.489Z,54.63
2018-08-13T23:36:45.649Z,54.94
2018-08-13T23:39:17.662Z,55.20
2018-08-13T23:41:49.743Z,54.21
2018-08-13T23:44:21.736Z,53.83
2018-08-13T23:46:53.863Z,56.34
2018-08-13T23:49:26.161Z,55.04
2018-08-13T23:51:58.231Z,55.03
2018-08-13T23:54:30.228Z,55.32
2018-08-13T23:57:02.493Z,54.20
2018-08-13T23:59:36.063Z,53.70
